Pagrindinis puslapis
METAR-TAF:

METAR-TAF

Oro uostai :

Jasper County Airport (Bell Field)

Jasper, Teksasas, Jungtinės Amerikos Valstijos

platuma: 30-53-08N, ilguma: 094-02-05W, Aukštis: 65 m

Dabartinis oras

Ataskaita buvo paskelbta 31 minutes, ne 02:55 UTC
Vėjas 5 kt iš Rytų/Pietryčių
Temperatūra 22°C
Drėgmė 94%
Slėgis 1015 hPa
Matomumas: 3.2 km
lietus, rūkana

METAR: KJAS 170255Z AUTO 12005KT 2SM -RA BR 22/21 A2997 RMK AO2 P0021

Laikas: 22:26 (03:26 UTC)


TAF: trūkstamas

Orai ataskaitas ir orų prognozės (METAR, TAF).

turimą stotys yra geltonos ir raudonos taškus žemėlapyje.

Perkelti pele per norėdami pamatyti stoties vardą.

Tada spustelėkite, norėdami matyti oro stebėjimo ir prognozės.

Norėdami pakeisti žemėlapį: spustelėkite ant žalios mygtukų su juodo kryžiaus žemyn,; žalią mygtuką su brūkšneliu, jei norite nutolinti; arba žalių rodyklių gretimoms žemėlapius.


METAR-TAF: